createdAt,value
2023-03-01T00:02:32.362Z,-1.70
2023-03-01T00:05:34.752Z,-1.93
2023-03-01T00:08:37.440Z,-1.91
2023-03-01T00:11:40.159Z,-1.88
2023-03-01T00:14:42.589Z,-1.86
2023-03-01T00:17:45.001Z,-1.88
2023-03-01T00:20:54.160Z,-1.65
2023-03-01T00:23:56.922Z,-1.56
2023-03-01T00:26:59.631Z,-1.67
2023-03-01T00:30:02.791Z,-1.63
2023-03-01T00:33:05.168Z,-1.64
2023-03-01T00:36:08.233Z,-1.51
2023-03-01T00:39:15.775Z,-1.46
2023-03-01T00:42:18.826Z,-1.34
2023-03-01T00:45:21.219Z,-1.32
2023-03-01T00:48:23.547Z,-1.22
2023-03-01T00:51:28.156Z,-1.19
2023-03-01T00:54:33.115Z,-1.20
2023-03-01T00:57:35.919Z,-1.39
2023-03-01T01:00:38.422Z,-1.26
2023-03-01T01:03:40.776Z,-1.38
2023-03-01T01:06:47.753Z,-1.26
2023-03-01T01:09:50.086Z,-1.38
2023-03-01T01:12:53.036Z,-1.49
2023-03-01T01:15:55.390Z,-1.84
2023-03-01T01:18:58.738Z,-1.79
2023-03-01T01:22:01.028Z,-1.73
2023-03-01T01:25:03.442Z,-1.75
2023-03-01T01:28:06.006Z,-1.74
2023-03-01T01:31:08.957Z,-1.69
2023-03-01T01:34:17.420Z,-1.69
2023-03-01T01:37:19.852Z,-1.69
2023-03-01T01:40:22.318Z,-1.58
2023-03-01T01:43:30.296Z,-1.49
2023-03-01T01:46:41.046Z,-1.58
2023-03-01T01:49:46.695Z,-1.57
2023-03-01T01:52:50.490Z,-1.52
2023-03-01T01:55:58.166Z,-1.52
2023-03-01T01:59:03.202Z,-1.51
2023-03-01T02:02:06.227Z,-1.77
2023-03-01T02:05:22.579Z,-1.62
2023-03-01T02:08:28.148Z,-1.80
2023-03-01T02:11:33.172Z,-2.02
2023-03-01T02:14:35.707Z,-2.17
2023-03-01T02:17:38.680Z,-1.76
2023-03-01T02:21:07.308Z,-1.63
2023-03-01T02:24:24.473Z,-2.13
2023-03-01T02:27:34.488Z,-1.98
2023-03-01T02:30:37.621Z,-1.90
2023-03-01T02:33:40.832Z,-2.12
2023-03-01T02:36:49.069Z,-2.04
2023-03-01T02:39:54.839Z,-2.06
2023-03-01T02:43:00.571Z,-2.22
2023-03-01T02:46:08.918Z,-2.16
2023-03-01T02:49:20.685Z,-1.95
2023-03-01T02:52:47.504Z,-1.99
2023-03-01T02:55:50.241Z,-2.21
2023-03-01T02:58:54.201Z,-2.12
2023-03-01T03:01:57.241Z,-2.15
2023-03-01T03:05:00.709Z,-2.26
2023-03-01T03:08:04.592Z,-2.20
2023-03-01T03:11:11.302Z,-2.17
2023-03-01T03:14:16.004Z,-2.45
2023-03-01T03:17:21.151Z,-2.17
2023-03-01T03:20:26.299Z,-1.99
2023-03-01T03:23:30.547Z,-2.03
2023-03-01T03:26:33.533Z,-2.02
2023-03-01T03:29:36.045Z,-2.14
2023-03-01T03:32:38.387Z,-2.19
2023-03-01T03:35:44.248Z,-2.05
2023-03-01T03:38:47.011Z,-1.82
2023-03-01T03:41:49.311Z,-1.76
2023-03-01T03:44:51.616Z,-1.70
2023-03-01T03:47:54.013Z,-1.80
2023-03-01T03:50:57.652Z,-1.86
2023-03-01T03:54:00.108Z,-1.92
2023-03-01T03:57:02.534Z,-1.97
2023-03-01T04:00:06.477Z,-1.90
2023-03-01T04:03:16.702Z,-1.98
2023-03-01T04:06:18.986Z,-1.96
2023-03-01T04:09:21.365Z,-2.14
2023-03-01T04:12:24.165Z,-2.04
2023-03-01T04:15:28.118Z,-2.16
2023-03-01T04:18:32.617Z,-2.25
2023-03-01T04:21:34.941Z,-2.27
2023-03-01T04:24:37.606Z,-2.18
2023-03-01T04:27:39.854Z,-2.23
2023-03-01T04:30:42.532Z,-2.40
2023-03-01T04:33:47.216Z,-2.32
2023-03-01T04:36:49.651Z,-2.27
2023-03-01T04:39:52.497Z,-2.27
2023-03-01T04:42:55.302Z,-2.30
2023-03-01T04:46:03.947Z,-2.27
2023-03-01T04:49:06.485Z,-2.28
2023-03-01T04:52:08.982Z,-2.30
2023-03-01T04:55:12.532Z,-2.48
2023-03-01T04:58:15.056Z,-2.36
2023-03-01T05:01:19.966Z,-2.67
2023-03-01T05:04:22.559Z,-2.68
2023-03-01T05:07:25.953Z,-2.45
2023-03-01T05:10:34.735Z,-2.55
2023-03-01T05:13:41.108Z,-2.43
2023-03-01T05:16:43.848Z,-2.48
2023-03-01T05:19:47.282Z,-2.44
2023-03-01T05:22:50.149Z,-2.27
2023-03-01T05:25:53.440Z,-2.34
2023-03-01T05:29:00.300Z,-2.34
2023-03-01T05:32:04.133Z,-2.29
2023-03-01T05:35:07.004Z,-2.22
2023-03-01T05:38:10.374Z,-2.24
2023-03-01T05:41:18.194Z,-2.17
2023-03-01T05:44:20.739Z,-2.21
2023-03-01T05:47:23.125Z,-2.62
2023-03-01T05:50:28.327Z,-2.60
2023-03-01T05:53:30.942Z,-2.52
2023-03-01T05:56:37.203Z,-2.45
2023-03-01T05:59:39.497Z,-2.39
2023-03-01T06:02:42.254Z,-2.30
2023-03-01T06:05:45.651Z,-2.27
2023-03-01T06:08:48.043Z,-2.13
2023-03-01T06:11:50.421Z,-2.04
2023-03-01T06:14:52.884Z,-1.97
2023-03-01T06:18:00.114Z,-1.88
2023-03-01T06:21:02.893Z,-2.21
2023-03-01T06:24:07.126Z,-2.31
2023-03-01T06:27:09.644Z,-2.49
2023-03-01T06:30:13.631Z,-1.78
2023-03-01T06:33:16.017Z,-1.74
2023-03-01T06:36:19.794Z,-1.66
2023-03-01T06:39:22.473Z,-1.63
2023-03-01T06:42:24.831Z,-1.72
2023-03-01T06:45:27.134Z,-1.90
2023-03-01T06:48:29.428Z,-1.85
2023-03-01T06:51:31.801Z,-1.58
2023-03-01T06:54:34.107Z,-1.48
2023-03-01T06:57:36.777Z,-1.59
2023-03-01T07:00:41.893Z,-1.58
2023-03-01T07:03:45.453Z,-1.38
2023-03-01T07:06:55.278Z,-1.44
2023-03-01T07:09:57.687Z,-1.23
2023-03-01T07:13:00.219Z,-1.07
2023-03-01T07:16:02.639Z,-1.09
2023-03-01T07:19:06.435Z,-1.09
2023-03-01T07:22:11.535Z,-0.83
2023-03-01T07:25:14.022Z,-0.87
2023-03-01T07:28:16.295Z,-1.06
2023-03-01T07:31:18.629Z,-0.83
2023-03-01T07:34:21.039Z,-0.82
2023-03-01T07:37:23.478Z,-0.68
2023-03-01T07:40:25.813Z,-0.62
2023-03-01T07:43:29.138Z,-0.72
2023-03-01T07:46:31.825Z,-0.50
2023-03-01T07:49:34.480Z,-0.56
2023-03-01T07:52:36.796Z,-0.36
2023-03-01T07:55:39.109Z,-0.56
2023-03-01T07:58:43.351Z,-0.24
2023-03-01T08:01:45.798Z,-0.23
2023-03-01T08:04:48.248Z,-0.54
2023-03-01T08:07:50.589Z,-0.26
2023-03-01T08:10:52.986Z,-0.41
2023-03-01T08:13:55.920Z,-0.43
2023-03-01T08:16:58.493Z,-0.15
2023-03-01T08:20:00.884Z,-0.51
2023-03-01T08:23:03.192Z,-0.06
2023-03-01T08:26:13.389Z,-0.37
2023-03-01T08:29:15.793Z,-0.17
2023-03-01T08:32:18.281Z,-0.25
2023-03-01T08:35:22.077Z,-0.17
2023-03-01T08:38:24.607Z,0.21
2023-03-01T08:41:27.633Z,0.42
2023-03-01T08:44:30.285Z,0.46
2023-03-01T08:47:34.579Z,0.73
2023-03-01T08:50:37.374Z,0.64
2023-03-01T08:53:40.505Z,0.52
2023-03-01T08:56:43.344Z,0.36
2023-03-01T08:59:45.773Z,0.36
2023-03-01T09:02:48.048Z,0.50
2023-03-01T09:05:51.398Z,0.84
2023-03-01T09:08:54.436Z,0.91
2023-03-01T09:11:56.784Z,1.02
2023-03-01T09:14:59.296Z,1.07
2023-03-01T09:18:02.098Z,0.99
2023-03-01T09:21:15.856Z,1.15
2023-03-01T09:24:18.263Z,1.37
2023-03-01T09:27:20.771Z,1.30
2023-03-01T09:30:23.587Z,1.36
2023-03-01T09:33:25.905Z,1.22
2023-03-01T09:36:28.697Z,1.34
2023-03-01T09:39:31.420Z,1.55
2023-03-01T09:42:37.717Z,1.62
2023-03-01T09:45:43.755Z,1.60
2023-03-01T09:49:07.314Z,1.78
2023-03-01T09:52:37.567Z,1.61
2023-03-01T09:56:07.060Z,1.86
2023-03-01T09:59:15.472Z,1.89
2023-03-01T10:02:28.696Z,2.00
2023-03-01T10:05:40.005Z,2.19
2023-03-01T10:08:45.271Z,2.46
2023-03-01T10:11:53.434Z,2.37
2023-03-01T10:15:01.317Z,2.24
2023-03-01T10:18:08.938Z,2.47
2023-03-01T10:21:17.845Z,2.51
2023-03-01T10:24:22.723Z,2.91
2023-03-01T10:27:38.286Z,2.86
2023-03-01T10:30:43.463Z,2.86
2023-03-01T10:33:45.992Z,3.22
2023-03-01T10:36:53.198Z,3.06
2023-03-01T10:39:57.433Z,3.34
2023-03-01T10:43:01.714Z,3.25
2023-03-01T10:46:04.152Z,3.41
2023-03-01T10:49:15.003Z,3.49
2023-03-01T10:52:23.007Z,3.54
2023-03-01T10:55:45.746Z,3.60
2023-03-01T10:59:05.804Z,3.70
2023-03-01T11:02:23.444Z,3.93
2023-03-01T11:05:29.567Z,4.09
2023-03-01T11:08:53.084Z,4.22
2023-03-01T11:11:59.797Z,4.32
2023-03-01T11:15:03.501Z,4.37
2023-03-01T11:18:14.058Z,4.31
2023-03-01T11:21:17.519Z,4.57
2023-03-01T11:24:21.462Z,4.61
2023-03-01T11:27:28.606Z,4.97
2023-03-01T11:30:36.018Z,5.09
2023-03-01T11:34:00.864Z,5.21
2023-03-01T11:37:09.361Z,5.27
2023-03-01T11:40:13.389Z,5.35
2023-03-01T11:43:34.619Z,5.37
2023-03-01T11:46:46.452Z,5.50
2023-03-01T11:50:18.047Z,5.73
2023-03-01T11:53:26.266Z,5.85
2023-03-01T11:56:35.066Z,5.72
2023-03-01T11:59:55.901Z,5.92
2023-03-01T12:02:58.130Z,6.23
2023-03-01T12:06:34.075Z,6.53
2023-03-01T12:10:05.379Z,6.64
2023-03-01T12:13:33.723Z,6.89
2023-03-01T12:17:00.483Z,6.77
2023-03-01T12:20:20.859Z,6.78
2023-03-01T12:23:39.103Z,6.89
2023-03-01T12:26:56.165Z,6.93
2023-03-01T12:30:26.558Z,7.10
2023-03-01T12:33:51.561Z,6.87
2023-03-01T12:36:56.584Z,7.09
2023-03-01T12:40:01.673Z,7.17
2023-03-01T12:43:22.750Z,7.28
2023-03-01T12:46:43.619Z,7.25
2023-03-01T12:50:05.604Z,7.25
2023-03-01T12:53:21.914Z,7.43
2023-03-01T12:56:30.359Z,7.56
2023-03-01T12:59:43.436Z,7.54
2023-03-01T13:02:48.456Z,8.00
2023-03-01T13:06:19.444Z,7.98
2023-03-01T13:09:31.995Z,8.18
2023-03-01T13:12:47.654Z,8.06
2023-03-01T13:15:52.372Z,8.11
2023-03-01T13:19:17.678Z,8.23
2023-03-01T13:22:29.195Z,8.17
2023-03-01T13:25:34.763Z,8.54
2023-03-01T13:28:50.070Z,8.44
2023-03-01T13:31:52.399Z,8.43
2023-03-01T13:35:06.010Z,8.58
2023-03-01T13:38:45.623Z,8.78
2023-03-01T13:41:53.124Z,9.02
2023-03-01T13:44:55.831Z,9.41
2023-03-01T13:48:05.924Z,9.35
2023-03-01T13:51:12.885Z,9.45
2023-03-01T13:54:16.989Z,9.53
2023-03-01T13:57:24.224Z,9.47
2023-03-01T14:00:37.428Z,9.51
2023-03-01T14:03:44.553Z,9.44
2023-03-01T14:06:46.900Z,9.42
2023-03-01T14:09:53.866Z,9.44
2023-03-01T14:13:31.462Z,9.26
2023-03-01T14:17:17.305Z,9.49
2023-03-01T14:20:23.482Z,9.57
2023-03-01T14:23:27.369Z,9.49
2023-03-01T14:26:29.959Z,9.31
2023-03-01T14:29:38.158Z,9.54
2023-03-01T14:32:40.566Z,9.51
2023-03-01T14:35:42.906Z,9.73
2023-03-01T14:38:48.300Z,9.83
2023-03-01T14:41:52.209Z,10.02
2023-03-01T14:44:56.107Z,10.50
2023-03-01T14:48:01.574Z,11.16
2023-03-01T14:51:06.828Z,11.62
2023-03-01T14:54:31.893Z,11.21
2023-03-01T14:57:34.375Z,10.76
2023-03-01T15:00:37.226Z,10.25
2023-03-01T15:03:44.959Z,10.08
2023-03-01T15:06:47.403Z,10.04
2023-03-01T15:09:49.808Z,9.74
2023-03-01T15:12:53.999Z,9.26
2023-03-01T15:16:10.170Z,9.36
2023-03-01T15:19:17.774Z,9.25
2023-03-01T15:22:20.032Z,9.29
2023-03-01T15:25:29.825Z,9.14
2023-03-01T15:28:44.700Z,8.89
2023-03-01T15:32:06.124Z,8.51
2023-03-01T15:35:49.130Z,8.18
2023-03-01T15:38:57.813Z,7.93
2023-03-01T15:42:01.141Z,7.77
2023-03-01T15:45:21.912Z,7.39
2023-03-01T15:48:27.373Z,7.16
2023-03-01T15:51:38.044Z,6.95
2023-03-01T15:54:41.983Z,6.74
2023-03-01T15:57:44.477Z,6.39
2023-03-01T16:01:00.313Z,6.18
2023-03-01T16:04:04.540Z,5.91
2023-03-01T16:07:07.546Z,5.64
2023-03-01T16:10:10.311Z,5.43
2023-03-01T16:13:14.009Z,5.24
2023-03-01T16:16:17.572Z,5.13
2023-03-01T16:19:20.326Z,4.84
2023-03-01T16:22:26.431Z,4.65
2023-03-01T16:25:29.470Z,4.45
2023-03-01T16:28:32.128Z,4.27
2023-03-01T16:31:35.245Z,4.15
2023-03-01T16:34:38.031Z,4.10
2023-03-01T16:37:41.328Z,3.93
2023-03-01T16:40:49.202Z,3.81
2023-03-01T16:43:52.881Z,3.72
2023-03-01T16:46:55.482Z,3.84
2023-03-01T16:49:57.786Z,3.85
2023-03-01T16:53:00.189Z,3.85
2023-03-01T16:56:02.706Z,3.72
2023-03-01T16:59:06.390Z,3.66
2023-03-01T17:02:14.300Z,3.65
2023-03-01T17:05:17.103Z,3.51
2023-03-01T17:08:19.902Z,3.54
2023-03-01T17:11:22.625Z,3.51
2023-03-01T17:14:25.526Z,3.66
2023-03-01T17:17:28.601Z,3.59
2023-03-01T17:20:31.199Z,3.51
2023-03-01T17:23:34.641Z,3.53
2023-03-01T17:26:37.377Z,3.45
2023-03-01T17:29:41.918Z,3.25
2023-03-01T17:32:45.018Z,3.01
2023-03-01T17:35:47.940Z,3.03
2023-03-01T17:38:51.211Z,2.99
2023-03-01T17:41:54.341Z,2.75
2023-03-01T17:44:57.921Z,2.73
2023-03-01T17:48:00.438Z,2.69
2023-03-01T17:51:07.686Z,2.59
2023-03-01T17:54:10.265Z,2.46
2023-03-01T17:57:13.640Z,2.38
2023-03-01T18:00:17.281Z,2.13
2023-03-01T18:03:21.694Z,1.77
2023-03-01T18:06:25.964Z,1.68
2023-03-01T18:09:29.244Z,1.61
2023-03-01T18:12:33.101Z,1.43
2023-03-01T18:15:36.122Z,1.37
2023-03-01T18:18:39.751Z,1.19
2023-03-01T18:21:42.387Z,1.11
2023-03-01T18:24:45.702Z,0.94
2023-03-01T18:27:48.371Z,0.83
2023-03-01T18:30:57.262Z,0.72
2023-03-01T18:34:01.553Z,0.67
2023-03-01T18:37:09.531Z,0.62
2023-03-01T18:40:14.225Z,0.60
2023-03-01T18:43:16.935Z,0.49
2023-03-01T18:46:23.665Z,0.44
2023-03-01T18:49:27.553Z,0.32
2023-03-01T18:52:30.057Z,0.30
2023-03-01T18:55:36.624Z,0.25
2023-03-01T18:58:39.316Z,0.21
2023-03-01T19:01:41.735Z,0.21
2023-03-01T19:04:44.150Z,0.26
2023-03-01T19:07:46.728Z,0.25
2023-03-01T19:10:59.888Z,0.17
2023-03-01T19:14:04.038Z,0.10
2023-03-01T19:17:06.561Z,0.10
2023-03-01T19:20:09.554Z,0.03
2023-03-01T19:23:13.616Z,-0.03
2023-03-01T19:26:18.575Z,-0.08
2023-03-01T19:29:23.225Z,-0.21
2023-03-01T19:32:26.918Z,-0.18
2023-03-01T19:35:29.973Z,-0.24
2023-03-01T19:38:33.060Z,-0.19
2023-03-01T19:41:37.025Z,-0.17
2023-03-01T19:44:40.542Z,-0.11
2023-03-01T19:47:43.046Z,-0.20
2023-03-01T19:50:45.503Z,-0.21
2023-03-01T19:53:51.097Z,-0.27
2023-03-01T19:56:53.530Z,-0.31
2023-03-01T19:59:55.971Z,-0.43
2023-03-01T20:02:58.372Z,-0.42
2023-03-01T20:06:02.700Z,-0.46
2023-03-01T20:09:19.295Z,-0.44
2023-03-01T20:12:23.231Z,-0.44
2023-03-01T20:15:25.869Z,-0.48
2023-03-01T20:18:28.935Z,-0.47
2023-03-01T20:21:33.402Z,-0.48
2023-03-01T20:24:38.970Z,-0.46
2023-03-01T20:27:41.370Z,-0.48
2023-03-01T20:30:44.367Z,-0.52
2023-03-01T20:33:46.775Z,-0.57
2023-03-01T20:36:49.309Z,-0.65
2023-03-01T20:39:51.725Z,-0.68
2023-03-01T20:42:57.665Z,-0.65
2023-03-01T20:46:05.868Z,-0.60
2023-03-01T20:49:08.410Z,-0.45
2023-03-01T20:52:10.954Z,-0.15
2023-03-01T20:55:13.410Z,0.15
2023-03-01T20:58:15.742Z,0.32
2023-03-01T21:01:21.824Z,0.50
2023-03-01T21:04:24.763Z,0.52
2023-03-01T21:07:27.227Z,0.64
2023-03-01T21:10:31.148Z,0.76
2023-03-01T21:13:34.142Z,0.83
2023-03-01T21:16:37.127Z,0.86
2023-03-01T21:19:43.701Z,1.14
2023-03-01T21:22:46.054Z,1.30
2023-03-01T21:25:48.450Z,1.31
2023-03-01T21:28:56.941Z,1.31
2023-03-01T21:31:59.337Z,1.54
2023-03-01T21:35:01.727Z,1.41
2023-03-01T21:38:04.029Z,1.41
2023-03-01T21:41:18.131Z,1.80
2023-03-01T21:44:20.446Z,1.93
2023-03-01T21:47:22.804Z,1.87
2023-03-01T21:50:25.126Z,1.82
2023-03-01T21:53:29.360Z,1.85
2023-03-01T21:56:34.639Z,1.89
2023-03-01T21:59:37.352Z,1.85
2023-03-01T22:02:39.657Z,1.87
2023-03-01T22:05:42.072Z,1.82
2023-03-01T22:08:48.152Z,1.87
2023-03-01T22:11:54.497Z,1.96
2023-03-01T22:14:56.760Z,2.00
2023-03-01T22:17:59.053Z,2.08
2023-03-01T22:21:08.396Z,1.90
2023-03-01T22:24:11.622Z,1.91
2023-03-01T22:27:13.904Z,1.88
2023-03-01T22:30:16.527Z,1.86
2023-03-01T22:33:18.799Z,1.85
2023-03-01T22:36:21.125Z,1.70
2023-03-01T22:39:23.451Z,1.64
2023-03-01T22:42:25.787Z,1.63
2023-03-01T22:45:32.546Z,1.71
2023-03-01T22:48:34.976Z,1.74
2023-03-01T22:51:39.611Z,1.71
2023-03-01T22:54:41.943Z,1.67
2023-03-01T22:57:44.237Z,1.62
2023-03-01T23:00:46.497Z,1.62
2023-03-01T23:03:49.462Z,1.63
2023-03-01T23:06:54.040Z,1.57
2023-03-01T23:09:57.472Z,1.62
2023-03-01T23:12:59.862Z,1.60
2023-03-01T23:16:02.130Z,1.52
2023-03-01T23:19:07.243Z,1.36
2023-03-01T23:22:09.495Z,1.44
2023-03-01T23:25:15.167Z,1.37
2023-03-01T23:28:17.538Z,1.27
2023-03-01T23:31:20.024Z,1.42
2023-03-01T23:34:22.308Z,1.32
2023-03-01T23:37:30.728Z,1.49
2023-03-01T23:40:33.024Z,1.53
2023-03-01T23:43:35.292Z,1.56
2023-03-01T23:46:38.058Z,1.47
2023-03-01T23:49:40.376Z,1.45
2023-03-01T23:52:42.789Z,1.39
2023-03-01T23:55:54.840Z,1.47
2023-03-01T23:58:59.914Z,1.59
